TimeCST,TemperatureF,Dew PointF,Humidity,Sea Level PressureIn,VisibilityMPH,Wind Direction,Wind SpeedMPH,Gust SpeedMPH,PrecipitationIn,Events,Conditions,WindDirDegrees,DateUTC
12:15 AM,-1.8,-12.5,61,30.43,10.0,Calm,Calm,-,N/A,,Clear,0,2014-02-11 06:15:00
12:35 AM,-2.4,-12.3,63,30.43,10.0,NW,3.5,-,N/A,,Clear,310,2014-02-11 06:35:00
12:55 AM,-3.8,-13.9,62,30.44,10.0,West,3.5,-,N/A,,Clear,280,2014-02-11 06:55:00
1:15 AM,-5.6,-14.3,66,30.44,10.0,West,3.5,-,N/A,,Clear,280,2014-02-11 07:15:00
1:35 AM,-5.1,-13.5,67,30.44,10.0,Calm,Calm,-,N/A,,Clear,0,2014-02-11 07:35:00
1:55 AM,-7.1,-15.2,68,30.44,10.0,Calm,Calm,-,N/A,,Clear,0,2014-02-11 07:55:00
2:15 AM,-11.2,-18.2,71,30.43,10.0,Calm,Calm,-,N/A,,Clear,0,2014-02-11 08:15:00
2:35 AM,-9.9,-16.4,73,30.44,10.0,Calm,Calm,-,N/A,,Clear,0,2014-02-11 08:35:00
2:55 AM,-7.8,-15.0,71,30.44,10.0,Calm,Calm,-,N/A,,Clear,0,2014-02-11 08:55:00
3:15 AM,-9.8,-17.7,68,30.44,10.0,Calm,Calm,-,N/A,,Clear,0,2014-02-11 09:15:00
3:35 AM,-10.8,-17.5,72,30.44,10.0,Calm,Calm,-,N/A,,Clear,0,2014-02-11 09:35:00
3:55 AM,-12.5,-19.3,72,30.44,10.0,Calm,Calm,-,N/A,,Clear,0,2014-02-11 09:55:00
4:15 AM,-11.6,-18.2,72,30.44,10.0,Calm,Calm,-,N/A,,Clear,0,2014-02-11 10:15:00
4:35 AM,-12.5,-18.8,74,30.44,10.0,Calm,Calm,-,N/A,,Clear,0,2014-02-11 10:35:00
4:55 AM,-13.0,-19.5,73,30.45,10.0,Calm,Calm,-,N/A,,Clear,0,2014-02-11 10:55:00
5:15 AM,-13.0,-19.5,73,30.45,10.0,Calm,Calm,-,N/A,,Clear,0,2014-02-11 11:15:00
5:35 AM,-12.8,-19.3,73,30.46,10.0,Calm,Calm,-,N/A,,Clear,0,2014-02-11 11:35:00
5:55 AM,-14.4,-21.1,72,30.46,10.0,Calm,Calm,-,N/A,,Clear,0,2014-02-11 11:55:00
6:15 AM,-14.1,-20.4,73,30.46,10.0,Calm,Calm,-,N/A,,Clear,0,2014-02-11 12:15:00
6:35 AM,-13.5,-20.0,73,30.47,10.0,Calm,Calm,-,N/A,,Clear,0,2014-02-11 12:35:00
6:55 AM,-14.6,-21.1,73,30.46,10.0,Calm,Calm,-,N/A,,Clear,0,2014-02-11 12:55:00
7:15 AM,-14.3,-21.1,71,30.46,10.0,Calm,Calm,-,N/A,,Clear,0,2014-02-11 13:15:00
7:35 AM,-14.8,-22.0,70,30.46,10.0,Calm,Calm,-,N/A,,Clear,0,2014-02-11 13:35:00
7:55 AM,-13.9,-20.7,71,30.46,10.0,Calm,Calm,-,N/A,,Clear,0,2014-02-11 13:55:00
8:15 AM,-11.6,-18.6,71,30.46,10.0,Calm,Calm,-,N/A,,Clear,0,2014-02-11 14:15:00
8:35 AM,-10.5,-18.2,69,30.46,10.0,Calm,Calm,-,N/A,,Clear,0,2014-02-11 14:35:00
8:55 AM,-7.2,-16.1,65,30.46,10.0,Calm,Calm,-,N/A,,Clear,0,2014-02-11 14:55:00
9:15 AM,-4.2,-13.7,64,30.46,10.0,Calm,Calm,-,N/A,,Clear,0,2014-02-11 15:15:00
9:35 AM,-2.2,-13.2,60,30.46,10.0,Calm,Calm,-,N/A,,Clear,0,2014-02-11 15:35:00
9:55 AM,1.0,-11.7,55,30.46,10.0,Calm,Calm,-,N/A,,Clear,0,2014-02-11 15:55:00
10:15 AM,3.0,-11.0,52,30.45,10.0,Calm,Calm,-,N/A,,Clear,0,2014-02-11 16:15:00
10:35 AM,6.4,-10.3,46,30.46,10.0,Calm,Calm,-,N/A,,Clear,0,2014-02-11 16:35:00
10:55 AM,9.0,-9.4,43,30.45,10.0,South,3.5,-,N/A,,Clear,170,2014-02-11 16:55:00
11:15 AM,10.2,-8.7,42,30.44,10.0,SSE,4.6,-,N/A,,Clear,150,2014-02-11 17:15:00
11:35 AM,11.7,-8.1,41,30.44,10.0,SE,5.8,-,N/A,,Clear,140,2014-02-11 17:35:00
11:55 AM,12.7,-8.5,38,30.43,10.0,South,4.6,-,N/A,,Clear,170,2014-02-11 17:55:00
12:15 PM,13.5,-8.1,38,30.43,10.0,South,4.6,-,N/A,,Clear,190,2014-02-11 18:15:00
12:35 PM,14.0,-7.2,38,30.41,10.0,South,4.6,-,N/A,,Clear,170,2014-02-11 18:35:00
12:55 PM,14.7,-7.4,37,30.40,10.0,SSE,5.8,-,N/A,,Clear,160,2014-02-11 18:55:00
1:15 PM,15.4,-6.3,38,30.39,10.0,SSE,4.6,-,N/A,,Clear,160,2014-02-11 19:15:00
1:35 PM,15.8,-6.0,38,30.38,10.0,SE,8.1,-,N/A,,Clear,140,2014-02-11 19:35:00
1:55 PM,16.3,-5.8,37,30.37,10.0,SSE,9.2,-,N/A,,Clear,160,2014-02-11 19:55:00
2:15 PM,16.2,-5.8,38,30.37,10.0,SSE,9.2,-,N/A,,Clear,160,2014-02-11 20:15:00
2:35 PM,16.3,-5.4,38,30.35,10.0,South,10.4,-,N/A,,Clear,170,2014-02-11 20:35:00
2:55 PM,16.5,-5.6,37,30.34,10.0,SE,9.2,-,N/A,,Clear,140,2014-02-11 20:55:00
3:15 PM,16.3,-5.4,38,30.35,10.0,SSE,8.1,-,N/A,,Clear,160,2014-02-11 21:15:00
3:35 PM,16.5,-5.1,38,30.34,10.0,SSE,8.1,-,N/A,,Clear,160,2014-02-11 21:35:00
3:55 PM,15.8,-4.5,40,30.33,10.0,SE,8.1,-,N/A,,Clear,140,2014-02-11 21:55:00
4:15 PM,15.3,-4.2,42,30.32,10.0,SSE,6.9,-,N/A,,Clear,150,2014-02-11 22:15:00
4:35 PM,14.9,-4.0,43,30.31,10.0,SSE,8.1,-,N/A,,Clear,150,2014-02-11 22:35:00
4:55 PM,13.5,-4.2,45,30.31,10.0,SSE,8.1,-,N/A,,Clear,150,2014-02-11 22:55:00
5:15 PM,11.8,-4.4,48,30.31,10.0,SE,8.1,-,N/A,,Clear,140,2014-02-11 23:15:00
5:35 PM,10.4,-5.1,50,30.31,10.0,SSE,6.9,-,N/A,,Clear,150,2014-02-11 23:35:00
5:55 PM,9.7,-5.4,51,30.31,10.0,SSE,6.9,-,N/A,,Clear,160,2014-02-11 23:55:00
6:15 PM,8.6,-5.8,52,30.31,10.0,SSE,8.1,-,N/A,,Clear,150,2014-02-12 00:15:00
6:35 PM,7.9,-5.8,54,30.30,10.0,SSE,6.9,-,N/A,,Clear,150,2014-02-12 00:35:00
6:55 PM,6.4,-6.0,57,30.30,10.0,SSE,5.8,-,N/A,,Clear,150,2014-02-12 00:55:00
7:15 PM,5.7,-6.3,58,30.30,10.0,South,5.8,-,N/A,,Clear,170,2014-02-12 01:15:00
7:35 PM,5.4,-6.5,58,30.29,10.0,SSE,6.9,-,N/A,,Clear,160,2014-02-12 01:35:00
7:55 PM,4.5,-7.1,59,30.29,10.0,SSE,5.8,-,N/A,,Clear,160,2014-02-12 01:55:00
8:15 PM,4.1,-7.4,59,30.27,10.0,SSE,5.8,-,N/A,,Clear,160,2014-02-12 02:15:00
8:35 PM,3.9,-7.8,58,30.27,10.0,SSE,6.9,-,N/A,,Clear,160,2014-02-12 02:35:00
8:55 PM,3.2,-8.1,59,30.27,10.0,South,3.5,-,N/A,,Clear,180,2014-02-12 02:55:00
9:15 PM,2.8,-8.3,60,30.27,10.0,South,4.6,-,N/A,,Clear,180,2014-02-12 03:15:00
9:35 PM,3.2,-8.3,59,30.26,10.0,South,4.6,-,N/A,,Clear,170,2014-02-12 03:35:00
9:55 PM,3.2,-8.0,60,30.26,10.0,South,5.8,-,N/A,,Clear,170,2014-02-12 03:55:00
10:15 PM,3.2,-8.0,60,30.25,10.0,South,6.9,-,N/A,,Clear,170,2014-02-12 04:15:00
10:35 PM,4.1,-7.1,60,30.25,10.0,South,6.9,-,N/A,,Clear,180,2014-02-12 04:35:00
10:55 PM,3.9,-7.4,59,30.26,10.0,South,6.9,-,N/A,,Clear,170,2014-02-12 04:55:00
11:15 PM,4.1,-6.9,60,30.26,10.0,South,6.9,-,N/A,,Clear,180,2014-02-12 05:15:00
11:35 PM,4.1,-6.7,61,30.25,10.0,South,8.1,-,N/A,,Clear,180,2014-02-12 05:35:00
11:55 PM,4.6,-6.9,59,30.25,10.0,South,8.1,-,N/A,,Clear,190,2014-02-12 05:55:00